createdAt,value
2018-04-29T00:01:49.756Z,5.97
2018-04-29T00:11:51.897Z,6.53
2018-04-29T00:21:53.245Z,6.03
2018-04-29T00:31:54.582Z,5.83
2018-04-29T00:41:55.913Z,5.93
2018-04-29T00:51:57.256Z,6.30
2018-04-29T01:12:08.014Z,6.13
2018-04-29T01:22:09.346Z,5.67
2018-04-29T01:32:10.685Z,6.63
2018-04-29T01:42:12.023Z,6.33
2018-04-29T01:52:15.289Z,6.17
2018-04-29T02:02:16.620Z,6.27
2018-04-29T02:12:17.953Z,6.23
2018-04-29T02:22:20.061Z,5.80
2018-04-29T02:32:21.402Z,5.87
2018-04-29T02:42:22.709Z,6.87
2018-04-29T02:52:24.017Z,5.67
2018-04-29T03:02:25.321Z,6.00
2018-04-29T03:12:26.629Z,6.50
2018-04-29T03:22:27.930Z,5.90
2018-04-29T03:32:29.234Z,5.97
2018-04-29T03:42:30.537Z,6.33
2018-04-29T03:52:32.612Z,7.27
2018-04-29T04:02:34.024Z,7.50
2018-04-29T04:12:35.237Z,6.30
2018-04-29T04:22:36.534Z,7.03
2018-04-29T04:32:38.605Z,6.23
2018-04-29T04:42:39.910Z,6.50
2018-04-29T04:52:41.225Z,7.00
2018-04-29T05:02:42.541Z,7.50
2018-04-29T05:12:43.940Z,6.40
2018-04-29T05:22:46.096Z,5.80
2018-04-29T05:32:47.444Z,6.80
2018-04-29T05:42:48.804Z,6.20
2018-04-29T05:52:50.245Z,6.77
2018-04-29T06:02:51.620Z,6.50
2018-04-29T06:12:52.961Z,8.17
2018-04-29T06:22:55.077Z,7.90
2018-04-29T06:32:57.154Z,7.13
2018-04-29T06:42:58.641Z,6.30
2018-04-29T06:52:59.982Z,7.07
2018-04-29T07:03:02.271Z,6.27
2018-04-29T07:13:03.645Z,8.13
2018-04-29T07:23:04.953Z,7.27
2018-04-29T07:33:06.282Z,7.13
2018-04-29T07:43:08.458Z,7.47
2018-04-29T07:53:09.781Z,7.10
2018-04-29T08:03:11.129Z,6.13
2018-04-29T08:13:12.436Z,6.20
2018-04-29T08:23:13.746Z,6.10
2018-04-29T18:27:31.382Z,7.07
2018-04-29T18:37:32.777Z,7.47
2018-04-29T18:47:34.139Z,7.47
2018-04-29T19:07:43.677Z,7.87
2018-04-29T19:17:45.069Z,7.37
2018-04-29T19:27:46.562Z,7.37
2018-04-29T19:37:48.722Z,8.10
2018-04-29T19:47:51.223Z,7.53
2018-04-29T19:57:52.691Z,8.53
2018-04-29T20:07:54.046Z,7.93
2018-04-29T20:17:55.411Z,8.00
2018-04-29T20:27:56.827Z,7.83
2018-04-29T20:37:58.306Z,7.67
